Terminal Aerodrome Forecast
Issued by NWS

Current Version | Previous Version | Text Only | Print | Product List | Glossary On
Versions: 1 2 3 4 5 6 7 8 9 10 11 12 13 14 15 16 17 18 19 20 21 22 23
000
FTUS42 KMHX 262300
TAFOAJ
TAF
KOAJ 262340Z 2700/2724 29005KT P6SM BKN020
     FM270200 26004KT P6SM SCT025 BKN050
     FM271000 23004KT P6SM BKN015
     FM271400 25010G16KT P6SM BKN050
      AMD LTD TO CLD VIS AND WIND=

USA.gov is the U.S. government's official web portal to all federal, state and local government web resources and services.